Time;durP1;ratioP1;P1;durP2;ratioP2;P2;SDS_P1;SDS_P2;PMS_P1;PMS_P2;Temp;Humidity;BMP_temperature;BMP_pressure;BME280_temperature;BME280_humidity;BME280_pressure;Samples;Min_cycle;Max_cycle;Signal;HPM_P1;HPM_P2
2023/10/14 00:03:06;;;;;;;12.00;4.40;;;;;;;18.38;75.26;98271.80;109576;1251;59465;-63
2023/10/14 00:05:52;;;;;;;13.10;4.70;;;;;;;18.45;75.00;98273.80;109599;1251;59911;-64
2023/10/14 00:09:07;;;;;;;12.70;4.30;;;;;;;18.47;74.39;98275.29;109674;1251;72692;-64
2023/10/14 00:11:55;;;;;;;11.60;4.20;;;;;;;18.57;73.89;98276.61;109599;1251;68968;-62
2023/10/14 00:14:46;;;;;;;14.20;4.70;;;;;;;18.63;73.78;98287.48;109603;1251;71446;-62
2023/10/14 00:17:36;;;;;;;15.00;4.90;;;;;;;18.62;73.90;98277.03;109637;1251;57287;-65
2023/10/14 00:20:23;;;;;;;12.70;4.40;;;;;;;18.61;74.30;98275.92;109648;1251;60240;-62
2023/10/14 00:23:11;;;;;;;11.20;4.20;;;;;;;18.58;74.56;98275.93;109543;1251;72078;-62
2023/10/14 00:25:59;;;;;;;12.10;4.40;;;;;;;18.54;74.62;98271.77;109618;1251;65807;-64
2023/10/14 00:28:46;;;;;;;18.30;5.10;;;;;;;18.53;74.75;98275.91;109566;1251;72425;-63
2023/10/14 00:31:34;;;;;;;14.20;4.80;;;;;;;18.49;75.16;98262.23;109574;1251;57321;-62
2023/10/14 00:34:25;;;;;;;11.40;4.50;;;;;;;18.45;75.17;98259.46;109617;1251;61112;-63
2023/10/14 00:37:12;;;;;;;11.00;4.20;;;;;;;18.38;75.14;98255.47;109467;1251;73952;-62
2023/10/14 00:40:10;;;;;;;10.70;3.80;;;;;;;18.34;75.10;98253.54;109600;1251;68664;-62
2023/10/14 00:42:57;;;;;;;12.20;5.10;;;;;;;18.32;74.91;98247.96;109440;1251;72790;-63
2023/10/14 00:45:44;;;;;;;14.60;4.60;;;;;;;18.29;75.24;98237.91;109574;1251;57421;-64
2023/10/14 00:48:34;;;;;;;11.50;4.50;;;;;;;18.22;75.42;98230.77;109639;1251;61318;-64
2023/10/14 00:51:23;;;;;;;14.30;4.80;;;;;;;18.22;75.54;98233.09;109418;1251;72783;-62
2023/10/14 00:54:11;;;;;;;12.60;4.70;;;;;;;18.17;75.63;98229.55;109402;1251;67740;-63
2023/10/14 00:57:10;;;;;;;14.80;4.30;;;;;;;18.17;75.61;98226.61;109608;1251;73912;-64
2023/10/14 00:59:57;;;;;;;14.90;4.90;;;;;;;18.16;75.60;98225.70;109444;1251;57475;-62
2023/10/14 01:02:45;;;;;;;12.70;5.00;;;;;;;18.14;75.69;98220.08;109559;1251;58865;-65
2023/10/14 01:05:35;;;;;;;13.70;4.50;;;;;;;18.12;76.00;98222.45;109672;1251;73120;-63
2023/10/14 01:08:25;;;;;;;14.00;4.60;;;;;;;18.04;76.18;98211.00;109535;1251;67755;-62
2023/10/14 01:11:11;;;;;;;10.40;4.30;;;;;;;18.04;76.48;98218.70;109521;1251;72744;-63
2023/10/14 01:14:05;;;;;;;15.30;5.40;;;;;;;18.01;76.48;98211.02;109435;1251;57928;-63
2023/10/14 01:16:52;;;;;;;12.40;4.40;;;;;;;17.98;76.84;98211.77;109530;1251;61366;-62
2023/10/14 01:19:38;;;;;;;13.50;5.00;;;;;;;17.95;76.83;98203.13;109630;1251;71948;-62
2023/10/14 01:22:26;;;;;;;13.00;4.80;;;;;;;17.92;76.84;98197.79;109524;1253;66850;-63
2023/10/14 01:25:15;;;;;;;10.50;4.70;;;;;;;17.89;76.89;98192.98;109589;1251;73393;-64
2023/10/14 01:28:11;;;;;;;13.60;4.60;;;;;;;17.88;76.89;98187.73;109603;1251;60386;-67
2023/10/14 01:31:57;;;;;;;12.60;4.80;;;;;;;17.87;76.86;98185.95;109568;1251;61134;-64
2023/10/14 01:34:45;;;;;;;12.90;4.80;;;;;;;17.85;76.74;98169.27;109546;1251;73110;-63
2023/10/14 01:37:37;;;;;;;13.70;4.60;;;;;;;17.84;76.72;98162.95;109636;1251;67126;-64
2023/10/14 01:40:29;;;;;;;16.40;5.30;;;;;;;17.83;76.60;98156.65;109520;1251;72677;-63
2023/10/14 01:43:16;;;;;;;13.10;4.50;;;;;;;17.84;76.59;98154.09;109579;1251;58044;-65
2023/10/14 01:46:04;;;;;;;13.60;4.70;;;;;;;17.82;76.56;98143.33;109638;1251;58770;-64
2023/10/14 01:49:01;;;;;;;16.70;5.40;;;;;;;17.82;76.66;98131.37;109631;1251;72475;-65
2023/10/14 01:51:49;;;;;;;14.60;4.80;;;;;;;17.78;76.89;98127.78;109619;1251;66283;-64
2023/10/14 01:54:39;;;;;;;13.90;4.90;;;;;;;17.75;77.03;98130.20;109603;1251;71751;-65
2023/10/14 01:57:26;;;;;;;11.20;4.20;;;;;;;17.70;77.14;98133.16;109480;1251;59292;-64
2023/10/14 02:00:24;;;;;;;14.00;4.80;;;;;;;17.63;77.10;98123.87;109582;1251;60211;-65
2023/10/14 02:03:10;;;;;;;12.10;4.80;;;;;;;17.64;77.40;98129.81;109451;1251;72325;-65
2023/10/14 02:05:58;;;;;;;11.70;4.60;;;;;;;17.62;77.42;98124.41;109327;1251;67614;-64
2023/10/14 02:08:53;;;;;;;13.60;4.90;;;;;;;17.60;77.43;98117.34;109598;1251;72154;-64
2023/10/14 02:11:40;;;;;;;14.60;5.20;;;;;;;17.59;77.58;98114.23;109445;1251;58056;-64
2023/10/14 02:14:27;;;;;;;15.80;5.20;;;;;;;17.57;77.68;98109.02;109631;1252;58649;-63
2023/10/14 02:17:14;;;;;;;13.30;5.00;;;;;;;17.58;77.75;98095.84;109449;1251;71779;-63
2023/10/14 02:20:20;;;;;;;11.60;4.90;;;;;;;17.55;78.09;98087.91;109550;1251;67760;-63
2023/10/14 02:23:06;;;;;;;15.40;5.20;;;;;;;17.51;78.77;98087.26;109611;1251;72396;-63
2023/10/14 02:26:00;;;;;;;15.10;4.60;;;;;;;17.49;78.96;98077.83;109464;1253;60544;-63
2023/10/14 02:28:47;;;;;;;13.60;4.70;;;;;;;17.44;79.54;98079.20;109646;1251;59073;-63
2023/10/14 02:31:36;;;;;;;12.00;5.10;;;;;;;17.41;79.58;98067.77;109627;1251;72043;-64
2023/10/14 02:34:23;;;;;;;14.00;5.60;;;;;;;17.40;79.68;98064.58;109620;1251;67727;-64
2023/10/14 02:37:13;;;;;;;16.30;5.40;;;;;;;17.36;79.96;98053.05;109621;1251;72695;-64
2023/10/14 02:39:59;;;;;;;15.20;5.50;;;;;;;17.32;80.33;98051.49;109405;1251;58023;-62
2023/10/14 02:42:46;;;;;;;11.70;4.60;;;;;;;17.27;80.98;98059.16;109549;1251;59243;-64
2023/10/14 02:45:38;;;;;;;17.50;5.20;;;;;;;17.21;81.39;98067.77;109634;1251;71607;-63
2023/10/14 02:48:35;;;;;;;12.50;5.20;;;;;;;17.16;81.87;98074.41;109360;1251;66419;-64
2023/10/14 02:51:35;;;;;;;17.40;5.00;;;;;;;17.10;82.25;98067.55;109490;1251;72608;-62
2023/10/14 02:54:28;;;;;;;17.20;5.60;;;;;;;17.04;82.29;98065.71;109621;1251;58190;-62
2023/10/14 03:00:01;;;;;;;15.00;5.60;;;;;;;16.99;82.60;98067.25;109612;1254;74465;-64
2023/10/14 03:03:02;;;;;;;14.60;5.10;;;;;;;16.95;82.80;98061.80;109624;1251;68698;-64
2023/10/14 03:05:52;;;;;;;15.80;4.90;;;;;;;16.95;82.86;98056.50;109631;1251;72603;-65
2023/10/14 03:08:39;;;;;;;14.40;5.50;;;;;;;16.95;82.87;98059.58;109544;1251;59429;-64
2023/10/14 03:11:26;;;;;;;18.70;5.20;;;;;;;16.93;83.37;98047.37;109522;1251;58984;-63
2023/10/14 03:14:12;;;;;;;14.00;5.30;;;;;;;16.91;84.05;98048.79;109470;1251;73867;-63
2023/10/14 03:16:59;;;;;;;12.20;5.00;;;;;;;16.88;84.69;98045.44;109467;1251;66924;-65
2023/10/14 03:19:45;;;;;;;16.30;5.40;;;;;;;16.81;85.75;98047.70;109607;1251;73565;-63
2023/10/14 03:22:31;;;;;;;15.60;5.50;;;;;;;16.74;86.38;98042.04;109609;1251;59485;-63
2023/10/14 03:25:23;;;;;;;14.20;5.60;;;;;;;16.67;87.58;98034.36;109538;1251;60398;-63
2023/10/14 03:30:59;;;;;;;13.00;5.00;;;;;;;16.52;88.96;98016.62;109556;1251;67583;-67
2023/10/14 03:33:46;;;;;;;16.30;5.40;;;;;;;16.47;89.75;98011.25;109585;1251;72608;-63
2023/10/14 03:36:32;;;;;;;12.40;4.80;;;;;;;16.41;90.25;97998.79;109480;1251;58225;-64
2023/10/14 03:39:21;;;;;;;12.90;5.70;;;;;;;16.34;91.11;97989.66;109529;1251;61302;-64
2023/10/14 03:42:11;;;;;;;14.50;5.20;;;;;;;16.25;91.92;97982.10;109470;1251;71435;-63
2023/10/14 03:44:58;;;;;;;13.70;5.60;;;;;;;16.20;92.77;97972.77;109534;1251;68226;-63
2023/10/14 03:47:45;;;;;;;15.80;5.50;;;;;;;16.14;93.68;97971.20;109499;1251;72770;-62
2023/10/14 03:50:31;;;;;;;12.50;5.00;;;;;;;16.08;94.08;97965.59;109530;1251;58626;-62
2023/10/14 03:53:19;;;;;;;11.90;5.40;;;;;;;16.04;94.50;97958.04;109530;1251;57848;-63
2023/10/14 03:56:06;;;;;;;13.00;5.70;;;;;;;15.98;95.81;97959.08;109476;1251;70873;-62
2023/10/14 03:59:01;;;;;;;13.10;5.30;;;;;;;15.93;96.32;97955.75;109630;1251;67947;-64
2023/10/14 04:01:54;;;;;;;14.60;5.00;;;;;;;15.89;96.77;97942.97;109415;1251;72444;-65
2023/10/14 04:04:42;;;;;;;13.60;5.60;;;;;;;15.84;97.09;97938.21;109475;1251;58223;-63
2023/10/14 04:07:29;;;;;;;16.50;5.60;;;;;;;15.78;98.16;97930.05;109519;1251;60419;-64
2023/10/14 04:10:22;;;;;;;16.40;6.20;;;;;;;15.71;98.54;97920.55;109303;1251;72828;-66
2023/10/14 04:13:13;;;;;;;13.80;5.50;;;;;;;15.66;99.32;97921.58;109494;1251;68102;-67
2023/10/14 04:16:00;;;;;;;14.00;5.50;;;;;;;15.60;99.80;97914.73;109478;1252;71241;-65
2023/10/14 04:18:47;;;;;;;13.10;4.60;;;;;;;15.57;99.71;97897.85;109350;1251;58052;-68
2023/10/14 04:21:37;;;;;;;13.60;5.20;;;;;;;15.53;99.99;97898.14;109622;1251;60181;-66
2023/10/14 04:27:36;;;;;;;12.00;5.60;;;;;;;15.44;100.00;97879.54;109553;1251;67843;-65
2023/10/14 04:30:24;;;;;;;12.30;4.90;;;;;;;15.43;100.00;97877.21;109598;1251;72528;-66
2023/10/14 04:39:04;;;;;;;12.60;5.30;;;;;;;15.38;100.00;97874.73;109466;1251;73204;-65
2023/10/14 04:44:59;;;;;;;12.40;5.70;;;;;;;15.30;100.00;97853.65;109576;1251;72710;-65
2023/10/14 04:47:47;;;;;;;10.60;4.60;;;;;;;15.28;100.00;97843.23;109577;1251;59566;-64
2023/10/14 04:50:38;;;;;;;10.90;4.80;;;;;;;15.26;100.00;97834.15;109496;1251;59257;-64
2023/10/14 04:53:26;;;;;;;12.20;5.40;;;;;;;15.24;100.00;97826.38;109526;1251;72103;-66
2023/10/14 04:56:21;;;;;;;12.50;5.10;;;;;;;15.21;100.00;97820.91;109617;1251;68750;-66
2023/10/14 04:59:08;;;;;;;13.50;5.00;;;;;;;15.19;100.00;97815.75;109641;1250;72499;-63
2023/10/14 05:01:55;;;;;;;11.90;4.60;;;;;;;15.18;100.00;97818.26;109431;1250;60277;-65
2023/10/14 05:04:42;;;;;;;14.20;5.50;;;;;;;15.16;100.00;97824.98;109540;1251;60024;-62
2023/10/14 05:07:28;;;;;;;11.10;5.10;;;;;;;15.12;100.00;97837.55;109615;1251;73094;-63
2023/10/14 05:10:15;;;;;;;10.90;5.50;;;;;;;15.10;100.00;97841.91;109453;1251;67920;-63
2023/10/14 05:13:09;;;;;;;13.10;5.10;;;;;;;15.10;100.00;97842.56;109506;1251;72472;-63
2023/10/14 05:16:04;;;;;;;11.90;5.10;;;;;;;15.08;100.00;97844.95;109570;1251;58422;-62
2023/10/14 05:19:07;;;;;;;17.90;5.40;;;;;;;15.03;100.00;97832.33;109561;1251;61241;-66
2023/10/14 05:22:03;;;;;;;13.10;5.10;;;;;;;15.02;100.00;97836.23;109562;1251;71854;-62
2023/10/14 05:24:54;;;;;;;11.40;4.50;;;;;;;14.97;100.00;97826.83;109500;1251;66725;-62
2023/10/14 05:27:46;;;;;;;13.00;4.70;;;;;;;14.93;100.00;97824.02;109567;1251;73248;-62
2023/10/14 05:30:34;;;;;;;13.20;4.70;;;;;;;14.91;100.00;97821.25;109496;1251;58134;-63
2023/10/14 05:33:21;;;;;;;13.40;5.10;;;;;;;14.83;100.00;97824.77;109596;1251;58843;-62
2023/10/14 05:36:07;;;;;;;13.80;5.10;;;;;;;14.87;100.00;97826.35;109317;1251;74219;-65
2023/10/14 05:38:53;;;;;;;13.90;5.50;;;;;;;14.85;100.00;97834.46;109596;1251;67886;-65
2023/10/14 05:41:39;;;;;;;12.50;4.70;;;;;;;14.82;100.00;97832.92;109614;1251;71385;-65
2023/10/14 05:44:29;;;;;;;13.00;5.10;;;;;;;14.79;100.00;97819.20;109545;1251;59611;-64
2023/10/14 05:47:19;;;;;;;13.50;5.00;;;;;;;14.75;100.00;97808.02;109549;1251;59207;-63
2023/10/14 05:50:09;;;;;;;10.10;4.70;;;;;;;14.74;100.00;97796.05;109501;1251;71774;-62
2023/10/14 05:52:55;;;;;;;13.30;5.10;;;;;;;14.71;100.00;97788.16;109600;1251;68807;-59
2023/10/14 05:55:41;;;;;;;12.80;4.70;;;;;;;14.79;100.00;97791.02;109507;1251;73674;-66
2023/10/14 05:58:28;;;;;;;9.60;4.50;;;;;;;14.88;100.00;97793.48;109539;1251;57686;-63
2023/10/14 06:01:16;;;;;;;14.10;5.00;;;;;;;14.96;100.00;97788.06;109535;1252;58248;-64
2023/10/14 06:04:03;;;;;;;13.80;5.70;;;;;;;15.01;100.00;97786.42;109308;1251;73953;-67
2023/10/14 06:06:50;;;;;;;12.70;5.20;;;;;;;14.97;100.00;97785.63;109223;1256;68710;-64
2023/10/14 06:09:37;;;;;;;13.20;4.90;;;;;;;14.97;100.00;97787.03;109164;1255;72742;-62
2023/10/14 06:12:24;;;;;;;13.00;5.20;;;;;;;14.96;100.00;97785.75;109275;1255;58069;-69
2023/10/14 06:15:17;;;;;;;14.40;4.50;;;;;;;14.95;100.00;97776.89;109032;1256;60362;-64
2023/10/14 06:18:05;;;;;;;14.40;5.20;;;;;;;14.99;100.00;97784.68;109239;1256;72943;-62
2023/10/14 06:20:53;;;;;;;11.80;4.80;;;;;;;14.99;100.00;97782.83;109169;1256;66435;-62
2023/10/14 06:23:39;;;;;;;10.30;4.80;;;;;;;15.02;100.00;97783.70;109221;1255;71279;-65
2023/10/14 06:26:27;;;;;;;11.60;4.40;;;;;;;15.06;100.00;97782.85;109135;1255;58080;-64
2023/10/14 06:29:13;;;;;;;11.50;4.20;;;;;;;15.11;100.00;97788.47;109070;1256;60112;-62
2023/10/14 06:32:02;;;;;;;10.60;4.40;;;;;;;15.17;100.00;97779.39;109182;1256;72912;-65
2023/10/14 06:35:06;;;;;;;11.40;5.10;;;;;;;15.22;100.00;97787.02;109205;1256;66735;-64
2023/10/14 06:37:54;;;;;;;10.60;4.50;;;;;;;15.26;100.00;97775.95;109237;1253;73469;-65
2023/10/14 06:40:42;;;;;;;10.90;4.20;;;;;;;15.30;100.00;97775.90;109494;1251;60785;-62
2023/10/14 06:43:28;;;;;;;11.10;4.70;;;;;;;15.37;100.00;97777.59;109519;1251;60237;-62
2023/10/14 06:46:16;;;;;;;12.00;5.20;;;;;;;15.42;100.00;97773.55;109471;1253;72925;-65
2023/10/14 06:49:05;;;;;;;13.60;4.00;;;;;;;15.47;100.00;97764.92;109538;1253;67857;-65
2023/10/14 06:51:51;;;;;;;12.80;3.90;;;;;;;15.54;100.00;97759.08;109456;1251;72390;-64
2023/10/14 06:54:37;;;;;;;13.20;3.90;;;;;;;15.63;100.00;97759.64;109475;1251;57352;-62
2023/10/14 06:57:24;;;;;;;10.50;3.90;;;;;;;15.68;100.00;97753.29;109495;1251;59642;-63
2023/10/14 07:00:14;;;;;;;11.00;4.10;;;;;;;15.83;100.00;97758.70;109507;1251;73998;-63
2023/10/14 07:03:00;;;;;;;13.40;4.50;;;;;;;15.94;99.85;97773.11;109573;1251;66721;-65
2023/10/14 07:08:44;;;;;;;9.20;4.10;;;;;;;15.92;99.24;97773.25;109516;1253;58023;-63
2023/10/14 07:11:31;;;;;;;13.30;4.00;;;;;;;15.98;98.84;97776.87;109608;1251;58712;-66
2023/10/14 07:14:18;;;;;;;9.10;3.90;;;;;;;16.27;97.68;97777.02;109541;1251;73262;-67
2023/10/14 07:17:07;;;;;;;10.70;4.50;;;;;;;16.90;93.99;97787.95;109521;1252;68553;-65
2023/10/14 07:19:54;;;;;;;11.00;4.10;;;;;;;17.56;90.71;97789.92;109530;1251;72758;-66
2023/10/14 07:22:44;;;;;;;9.80;3.90;;;;;;;17.80;87.50;97789.45;109564;1254;57923;-62
2023/10/14 07:25:37;;;;;;;13.70;4.20;;;;;;;18.43;85.82;97803.46;109369;1252;60372;-62
2023/10/14 07:28:23;;;;;;;10.90;4.30;;;;;;;19.27;82.68;97815.73;109420;1252;73708;-66
2023/10/14 07:31:13;;;;;;;9.80;4.00;;;;;;;19.10;82.07;97817.17;109477;1251;67804;-64
2023/10/14 07:34:08;;;;;;;10.50;3.90;;;;;;;18.59;84.08;97875.29;109120;1256;72541;-64
2023/10/14 07:36:57;;;;;;;9.40;3.20;;;;;;;18.04;87.00;97907.30;109080;1256;59707;-65
2023/10/14 07:39:52;;;;;;;7.30;1.90;;;;;;;17.42;87.20;97935.14;109108;1256;61114;-63
2023/10/14 07:42:38;;;;;;;6.20;1.60;;;;;;;16.74;87.50;97934.58;109140;1256;74392;-64
2023/10/14 07:45:28;;;;;;;5.40;1.20;;;;;;;16.22;88.78;97946.80;109293;1256;66461;-62
2023/10/14 07:48:17;;;;;;;6.10;1.40;;;;;;;15.84;90.19;97946.25;109236;1255;73411;-63
2023/10/14 07:51:06;;;;;;;7.80;1.20;;;;;;;15.57;91.26;97969.13;109245;1255;59596;-63
2023/10/14 07:54:12;;;;;;;5.90;1.40;;;;;;;15.22;92.31;97977.25;109203;1256;60286;-62
2023/10/14 07:56:59;;;;;;;5.10;1.30;;;;;;;14.89;93.44;98004.09;109229;1257;72864;-68
2023/10/14 07:59:45;;;;;;;5.50;1.10;;;;;;;14.78;94.10;98008.22;109230;1256;67882;-66
2023/10/14 08:02:32;;;;;;;5.50;1.10;;;;;;;14.72;92.52;98017.58;109083;1256;71430;-63
2023/10/14 08:05:19;;;;;;;4.80;1.00;;;;;;;14.74;91.18;98025.33;109336;1254;57281;-62
2023/10/14 08:08:09;;;;;;;4.80;1.10;;;;;;;14.97;90.48;98031.78;109341;1252;59160;-62
2023/10/14 08:10:59;;;;;;;5.30;1.20;;;;;;;15.66;86.72;98031.33;109550;1251;73169;-60
2023/10/14 08:13:46;;;;;;;5.60;1.10;;;;;;;16.67;81.59;98042.70;109314;1253;68902;-65
2023/10/14 08:16:34;;;;;;;5.60;1.10;;;;;;;16.47;79.08;98050.73;109580;1251;73151;-63
2023/10/14 08:19:21;;;;;;;6.30;1.30;;;;;;;16.28;80.47;98053.82;109385;1251;57402;-62
2023/10/14 08:22:14;;;;;;;5.70;1.20;;;;;;;16.10;80.82;98041.73;109592;1251;60638;-63
2023/10/14 08:25:03;;;;;;;5.10;1.10;;;;;;;15.75;81.49;98039.67;109416;1251;71767;-63
2023/10/14 08:27:54;;;;;;;7.10;1.70;;;;;;;15.33;82.94;98042.59;109423;1251;67778;-64
2023/10/14 08:30:50;;;;;;;7.10;1.10;;;;;;;14.96;84.93;98055.42;109292;1254;72812;-64
2023/10/14 08:33:37;;;;;;;6.40;1.30;;;;;;;14.59;86.30;98063.76;109506;1254;58781;-65
2023/10/14 08:36:26;;;;;;;5.70;1.30;;;;;;;14.31;88.60;98067.42;109590;1251;58989;-64
2023/10/14 08:39:14;;;;;;;6.50;1.20;;;;;;;14.13;89.08;98075.44;109485;1252;73853;-64
2023/10/14 08:42:04;;;;;;;5.40;1.20;;;;;;;14.04;89.80;98087.13;109545;1251;67762;-64
2023/10/14 08:44:58;;;;;;;6.10;1.40;;;;;;;13.92;90.49;98050.63;109598;1253;72377;-61
2023/10/14 08:47:50;;;;;;;5.20;1.20;;;;;;;13.76;90.18;98063.95;109270;1254;61253;-64
2023/10/14 08:50:39;;;;;;;6.20;1.30;;;;;;;13.58;90.64;98089.08;109618;1251;58985;-65
2023/10/14 08:53:27;;;;;;;5.40;1.40;;;;;;;13.48;91.30;98085.25;109544;1251;72293;-64
2023/10/14 08:56:13;;;;;;;5.70;1.30;;;;;;;13.42;91.42;98100.61;109679;1250;66123;-64
2023/10/14 08:59:00;;;;;;;6.70;1.50;;;;;;;13.36;91.54;98120.88;109670;1250;72790;-64
2023/10/14 09:01:54;;;;;;;6.50;1.50;;;;;;;13.32;91.96;98127.26;109679;1251;59379;-63
2023/10/14 09:04:40;;;;;;;6.70;1.40;;;;;;;13.30;92.58;98154.92;109624;1251;58973;-63
2023/10/14 09:07:27;;;;;;;5.90;1.40;;;;;;;13.22;91.74;98159.17;109582;1251;72753;-64
2023/10/14 09:10:16;;;;;;;4.80;1.40;;;;;;;13.15;91.86;98151.14;109646;1251;68727;-65
2023/10/14 09:13:08;;;;;;;7.20;1.30;;;;;;;13.03;92.77;98161.27;109661;1251;72538;-64
2023/10/14 09:15:57;;;;;;;5.90;1.10;;;;;;;12.89;93.78;98169.80;109607;1251;59391;-64
2023/10/14 09:18:57;;;;;;;8.00;1.70;;;;;;;12.94;94.22;98178.27;109640;1251;58872;-64
2023/10/14 09:21:45;;;;;;;8.60;2.30;;;;;;;12.91;93.73;98192.61;109651;1251;72923;-66
2023/10/14 09:24:34;;;;;;;9.80;1.80;;;;;;;12.93;93.43;98199.42;109665;1251;66505;-64
2023/10/14 09:27:20;;;;;;;6.70;1.30;;;;;;;12.93;93.22;98204.04;109584;1251;72935;-64
2023/10/14 09:30:10;;;;;;;7.20;1.50;;;;;;;13.00;91.93;98210.39;109533;1251;57946;-65
2023/10/14 09:32:57;;;;;;;8.90;1.60;;;;;;;13.06;90.03;98212.73;109153;1254;58839;-63
2023/10/14 09:35:48;;;;;;;7.10;1.50;;;;;;;13.23;87.71;98231.25;109253;1254;74168;-65
2023/10/14 09:38:34;;;;;;;6.60;1.30;;;;;;;13.50;84.70;98242.52;109144;1256;67975;-65
2023/10/14 09:41:24;;;;;;;11.30;1.80;;;;;;;13.93;82.20;98249.33;109163;1254;71215;-64
2023/10/14 09:44:34;;;;;;;7.70;1.50;;;;;;;15.40;76.88;98242.17;109207;1257;57863;-65
2023/10/14 09:47:25;;;;;;;9.80;1.90;;;;;;;17.21;71.15;98243.00;109291;1254;59088;-65
2023/10/14 09:50:14;;;;;;;7.30;1.70;;;;;;;17.78;67.05;98236.27;109170;1258;72911;-66
2023/10/14 09:53:02;;;;;;;9.40;1.90;;;;;;;18.34;63.35;98242.98;109199;1257;67655;-68
2023/10/14 09:55:48;;;;;;;9.10;1.70;;;;;;;18.19;62.88;98248.31;109217;1257;72811;-63
2023/10/14 09:58:43;;;;;;;8.30;1.70;;;;;;;17.91;63.85;98247.67;109162;1254;57703;-66
2023/10/14 10:01:29;;;;;;;7.90;1.90;;;;;;;17.66;65.56;98248.08;109239;1254;61240;-64
2023/10/14 10:04:24;;;;;;;8.70;1.80;;;;;;;17.44;66.15;98241.89;109535;1250;74196;-66
2023/10/14 10:07:22;;;;;;;10.20;1.60;;;;;;;17.14;65.88;98237.56;109713;1251;66695;-64
2023/10/14 10:10:20;;;;;;;7.30;1.80;;;;;;;16.80;67.12;98252.67;109672;1250;73514;-63
2023/10/14 10:13:08;;;;;;;8.50;2.00;;;;;;;16.27;67.90;98262.08;109593;1251;57425;-63
2023/10/14 10:16:05;;;;;;;9.70;2.00;;;;;;;15.93;69.28;98260.15;109650;1251;60061;-62
2023/10/14 10:18:58;;;;;;;7.90;1.80;;;;;;;16.27;69.23;98255.91;109698;1250;72944;-62
2023/10/14 10:22:17;;;;;;;10.20;1.90;;;;;;;16.95;66.19;98259.41;109669;1251;67876;-64
2023/10/14 10:25:04;;;;;;;8.20;1.80;;;;;;;16.79;66.67;98262.05;108986;1260;71582;-61
2023/10/14 10:27:52;;;;;;;8.80;2.00;;;;;;;17.91;62.53;98262.14;108923;1259;57475;-65
2023/10/14 10:30:46;;;;;;;8.60;2.50;;;;;;;19.51;55.81;98266.73;109040;1258;58956;-63
2023/10/14 10:34:01;;;;;;;10.80;2.30;;;;;;;20.86;51.95;98271.55;108992;1260;73005;-63
2023/10/14 10:36:52;;;;;;;9.00;2.00;;;;;;;22.58;49.72;98271.90;108989;1259;66888;-68
2023/10/14 10:39:40;;;;;;;8.50;1.80;;;;;;;22.78;45.49;98272.30;108920;1259;70213;-63
2023/10/14 10:42:28;;;;;;;7.70;1.80;;;;;;;23.16;44.32;98278.14;108941;1260;57863;-62
2023/10/14 10:45:20;;;;;;;8.20;1.50;;;;;;;22.50;42.44;98283.20;108781;1260;59238;-64
2023/10/14 10:48:14;;;;;;;8.30;1.80;;;;;;;21.70;43.53;98300.39;108993;1259;73125;-64
2023/10/14 10:51:01;;;;;;;8.20;2.00;;;;;;;21.81;43.94;98310.23;108795;1260;67695;-65
2023/10/14 10:53:49;;;;;;;9.90;2.20;;;;;;;22.60;43.00;98317.40;108966;1260;72278;-63
2023/10/14 10:56:35;;;;;;;6.50;1.60;;;;;;;22.94;40.38;98323.08;108972;1260;57989;-62
2023/10/14 10:59:22;;;;;;;10.00;1.60;;;;;;;23.62;38.13;98320.83;108943;1262;60227;-61
2023/10/14 11:02:13;;;;;;;9.00;1.70;;;;;;;23.55;38.18;98332.93;109480;1255;71499;-62
2023/10/14 11:05:01;;;;;;;11.10;2.10;;;;;;;23.88;37.85;98324.83;109661;1250;67882;-65
2023/10/14 11:07:48;;;;;;;8.60;1.80;;;;;;;23.49;37.34;98336.73;109681;1251;73716;-64
2023/10/14 11:10:42;;;;;;;8.70;2.10;;;;;;;23.00;37.98;98341.27;109590;1254;57240;-66
2023/10/14 11:13:29;;;;;;;9.00;2.50;;;;;;;23.00;37.83;98346.63;109613;1251;60156;-70
2023/10/14 11:16:15;;;;;;;10.00;3.10;;;;;;;22.91;37.80;98350.27;109381;1250;72340;-67
2023/10/14 11:19:07;;;;;;;9.40;2.30;;;;;;;22.17;39.28;98351.55;109387;1256;66351;-63
2023/10/14 11:21:56;;;;;;;9.20;2.10;;;;;;;21.54;40.43;98349.20;109657;1251;72665;-64
2023/10/14 11:24:44;;;;;;;10.10;2.10;;;;;;;20.65;42.23;98353.66;109671;1251;58087;-64
2023/10/14 11:27:30;;;;;;;9.40;1.80;;;;;;;19.79;43.97;98364.66;109590;1251;59740;-63
2023/10/14 11:30:18;;;;;;;8.40;1.80;;;;;;;18.94;45.60;98374.89;109549;1251;73992;-64
2023/10/14 11:33:12;;;;;;;9.80;2.00;;;;;;;18.41;47.31;98381.33;109494;1251;66321;-66
2023/10/14 11:35:59;;;;;;;9.30;1.90;;;;;;;17.85;49.20;98384.82;109653;1250;73479;-65
2023/10/14 11:38:48;;;;;;;10.30;2.20;;;;;;;17.26;50.50;98392.89;109645;1251;57587;-61
2023/10/14 11:41:36;;;;;;;10.20;2.30;;;;;;;16.98;51.78;98405.95;109622;1251;57692;-61
2023/10/14 11:44:22;;;;;;;9.10;2.30;;;;;;;16.65;52.66;98408.36;109655;1251;73125;-63
2023/10/14 11:47:16;;;;;;;9.20;2.10;;;;;;;16.28;53.78;98417.89;109459;1251;66757;-65
2023/10/14 11:50:11;;;;;;;11.50;2.50;;;;;;;15.88;55.08;98427.58;109654;1251;72985;-66
2023/10/14 11:52:57;;;;;;;10.40;2.30;;;;;;;15.60;56.74;98438.26;109572;1251;58988;-68
2023/10/14 11:55:44;;;;;;;9.90;1.90;;;;;;;15.35;57.06;98439.67;109680;1251;61424;-68
2023/10/14 11:58:40;;;;;;;10.60;1.80;;;;;;;15.23;57.61;98453.80;109701;1251;74002;-66
2023/10/14 12:01:28;;;;;;;13.00;2.30;;;;;;;15.41;57.52;98460.05;109569;1251;67875;-65
2023/10/14 12:04:16;;;;;;;8.40;1.60;;;;;;;15.38;57.79;98459.13;109501;1251;72574;-65
2023/10/14 12:07:04;;;;;;;13.10;2.40;;;;;;;15.34;58.12;98460.89;109355;1254;58069;-66
2023/10/14 12:09:57;;;;;;;11.20;2.40;;;;;;;15.37;58.76;98471.94;109517;1256;60167;-66
2023/10/14 12:12:52;;;;;;;9.80;2.60;;;;;;;15.43;59.24;98474.67;109572;1251;73911;-66
2023/10/14 12:15:39;;;;;;;10.50;2.50;;;;;;;15.64;58.61;98480.27;109420;1256;68662;-67
2023/10/14 12:18:25;;;;;;;10.10;1.90;;;;;;;16.19;57.15;98465.02;109525;1251;72701;-66
2023/10/14 12:21:12;;;;;;;8.50;1.80;;;;;;;16.52;56.03;98464.17;109556;1255;57310;-67
2023/10/14 12:24:02;;;;;;;10.30;2.10;;;;;;;16.62;54.99;98462.42;109591;1251;60451;-68
2023/10/14 12:26:52;;;;;;;9.00;2.00;;;;;;;16.93;54.04;98468.67;109403;1251;71937;-66
2023/10/14 12:29:38;;;;;;;10.10;2.20;;;;;;;17.04;51.57;98465.73;109610;1251;67692;-66
2023/10/14 12:32:25;;;;;;;9.70;1.90;;;;;;;17.00;51.48;98466.86;109464;1251;72719;-66
2023/10/14 12:35:17;;;;;;;12.00;1.90;;;;;;;16.95;49.98;98472.61;109522;1251;57710;-61
2023/10/14 12:38:11;;;;;;;10.10;1.90;;;;;;;16.55;50.68;98477.67;109524;1251;61403;-64
2023/10/14 12:40:58;;;;;;;8.80;1.70;;;;;;;16.17;51.19;98488.00;109578;1251;72898;-64
2023/10/14 12:43:50;;;;;;;8.50;2.00;;;;;;;15.90;53.14;98509.02;109557;1251;66574;-64
2023/10/14 12:46:40;;;;;;;8.90;1.70;;;;;;;15.43;57.17;98529.36;109369;1253;72366;-63
2023/10/14 12:49:30;;;;;;;10.10;2.20;;;;;;;14.67;59.58;98539.83;109437;1254;57560;-65
2023/10/14 12:52:19;;;;;;;7.60;1.50;;;;;;;14.01;62.67;98544.50;109563;1251;61406;-67
2023/10/14 12:55:14;;;;;;;9.90;2.20;;;;;;;13.42;64.75;98548.26;109572;1251;71995;-68
2023/10/14 12:58:04;;;;;;;9.10;1.70;;;;;;;12.98;68.49;98561.20;109585;1251;68149;-67
2023/10/14 13:00:54;;;;;;;10.70;2.20;;;;;;;12.65;71.74;98562.46;109390;1254;72632;-64
2023/10/14 13:03:46;;;;;;;12.40;2.10;;;;;;;12.34;72.91;98558.34;109461;1254;58312;-65
2023/10/14 13:06:33;;;;;;;10.30;2.20;;;;;;;12.24;74.64;98569.17;109433;1251;60452;-65
2023/10/14 13:09:20;;;;;;;10.80;2.00;;;;;;;12.12;76.00;98571.60;109509;1253;73131;-64
2023/10/14 13:12:15;;;;;;;12.40;2.10;;;;;;;12.04;76.16;98575.06;109267;1251;68736;-68
2023/10/14 13:15:05;;;;;;;8.40;1.80;;;;;;;12.02;77.43;98575.29;109500;1251;72538;-68
2023/10/14 13:17:59;;;;;;;9.90;1.80;;;;;;;12.02;77.59;98577.25;109529;1251;57253;-65
2023/10/14 13:20:47;;;;;;;8.10;1.80;;;;;;;12.06;77.72;98576.11;109609;1251;58950;-64
2023/10/14 13:23:36;;;;;;;10.70;1.90;;;;;;;12.25;77.73;98573.34;108095;1251;1002232;-64
2023/10/14 13:26:23;;;;;;;7.40;1.70;;;;;;;12.34;76.91;98570.84;109572;1251;68775;-66